createdAt,value
2017-11-09T00:00:48.707Z,56.20
2017-11-09T00:01:53.928Z,56.30
2017-11-09T00:02:58.904Z,56.30
2017-11-09T00:04:04.110Z,56.30
2017-11-09T00:05:09.379Z,56.40
2017-11-09T00:06:14.980Z,56.30
2017-11-09T00:07:20.083Z,56.40
2017-11-09T00:08:25.668Z,56.30
2017-11-09T00:09:31.210Z,56.30
2017-11-09T00:10:36.464Z,56.40
2017-11-09T00:11:41.567Z,56.40
2017-11-09T00:12:47.493Z,56.40
2017-11-09T00:13:52.838Z,56.40
2017-11-09T00:14:58.147Z,56.50
2017-11-09T00:16:03.647Z,56.40
2017-11-09T00:17:09.134Z,56.50
2017-11-09T00:18:14.430Z,56.40
2017-11-09T00:19:19.856Z,56.50
2017-11-09T00:20:25.169Z,56.40
2017-11-09T00:21:30.221Z,56.50
2017-11-09T00:22:35.775Z,56.50
2017-11-09T00:23:40.878Z,56.50
2017-11-09T00:24:46.058Z,56.50
2017-11-09T00:25:51.476Z,56.60
2017-11-09T00:26:56.290Z,56.50
2017-11-09T00:28:01.048Z,56.50
2017-11-09T00:29:05.884Z,56.50
2017-11-09T00:30:10.722Z,56.50
2017-11-09T00:31:15.544Z,56.60
2017-11-09T00:32:20.285Z,56.60
2017-11-09T00:33:24.885Z,56.60
2017-11-09T00:34:29.588Z,56.70
2017-11-09T00:35:34.297Z,56.70
2017-11-09T00:36:38.926Z,56.70
2017-11-09T00:37:43.792Z,56.70
2017-11-09T00:38:48.421Z,56.80
2017-11-09T00:39:53.191Z,56.80
2017-11-09T00:40:58.071Z,56.80
2017-11-09T00:42:02.980Z,56.90
2017-11-09T00:43:07.871Z,56.80
2017-11-09T00:44:12.887Z,56.90
2017-11-09T00:45:17.488Z,56.80
2017-11-09T00:46:22.197Z,56.90
2017-11-09T00:47:26.792Z,56.90
2017-11-09T00:48:31.747Z,56.90
2017-11-09T00:49:36.373Z,56.90
2017-11-09T00:50:41.137Z,57.00
2017-11-09T00:51:46.396Z,57.00
2017-11-09T00:52:51.356Z,56.90
2017-11-09T00:53:56.196Z,56.90
2017-11-09T00:55:01.131Z,57.00
2017-11-09T00:56:05.865Z,57.00
2017-11-09T00:57:10.832Z,57.00
2017-11-09T00:58:15.654Z,57.00
2017-11-09T00:59:20.464Z,57.00
2017-11-09T01:00:25.384Z,57.00
2017-11-09T01:01:30.156Z,57.00
2017-11-09T01:02:34.825Z,57.00
2017-11-09T01:03:39.599Z,57.00
2017-11-09T01:04:44.508Z,57.00
2017-11-09T01:05:49.247Z,57.00
2017-11-09T01:06:53.959Z,57.10
2017-11-09T01:07:58.609Z,57.10
2017-11-09T01:09:03.292Z,57.00
2017-11-09T01:10:08.155Z,57.10
2017-11-09T01:11:12.915Z,57.10
2017-11-09T01:12:17.715Z,57.10
2017-11-09T01:13:22.435Z,57.10
2017-11-09T01:14:27.215Z,57.10
2017-11-09T01:15:31.842Z,57.00
2017-11-09T01:16:36.740Z,57.10
2017-11-09T01:17:41.617Z,57.10
2017-11-09T01:18:46.528Z,57.10
2017-11-09T01:19:51.125Z,57.10
2017-11-09T01:20:56.005Z,57.10
2017-11-09T01:22:00.907Z,57.10
2017-11-09T01:23:05.509Z,57.20
2017-11-09T01:24:10.318Z,57.10
2017-11-09T01:25:15.158Z,57.10
2017-11-09T01:26:19.914Z,57.20
2017-11-09T01:27:24.787Z,57.10
2017-11-09T01:28:29.771Z,57.20
2017-11-09T01:29:34.679Z,57.20
2017-11-09T01:30:39.402Z,57.20
2017-11-09T01:31:44.277Z,57.20
2017-11-09T01:32:49.033Z,57.20
2017-11-09T01:33:53.753Z,57.10
2017-11-09T01:34:58.660Z,57.20
2017-11-09T01:36:03.533Z,57.10
2017-11-09T01:37:08.347Z,57.10
2017-11-09T01:38:13.455Z,57.20
2017-11-09T01:39:18.304Z,57.20
2017-11-09T01:40:23.095Z,57.20
2017-11-09T01:41:28.106Z,57.20
2017-11-09T01:42:33.082Z,57.20
2017-11-09T01:43:37.872Z,57.20
2017-11-09T01:44:42.958Z,57.30
2017-11-09T01:45:47.742Z,57.20
2017-11-09T01:46:52.746Z,57.20
2017-11-09T01:47:57.543Z,57.20
2017-11-09T01:49:02.358Z,57.20
2017-11-09T01:50:07.261Z,57.20
2017-11-09T01:51:12.182Z,57.90
2017-11-09T01:52:17.153Z,57.20
2017-11-09T01:53:21.937Z,57.20
2017-11-09T01:54:26.791Z,57.30
2017-11-09T01:55:31.808Z,57.30
2017-11-09T01:56:36.497Z,57.30
2017-11-09T01:57:41.303Z,57.30
2017-11-09T01:58:46.096Z,57.30
2017-11-09T01:59:50.837Z,57.30
2017-11-09T02:00:55.470Z,57.30
2017-11-09T02:02:00.056Z,57.30
2017-11-09T02:03:04.967Z,57.30
2017-11-09T02:04:09.695Z,57.30
2017-11-09T02:05:14.473Z,57.30
2017-11-09T02:06:19.702Z,57.40
2017-11-09T02:07:24.504Z,57.40
2017-11-09T02:08:29.268Z,57.30
2017-11-09T02:09:33.979Z,57.40
2017-11-09T02:10:38.878Z,57.40
2017-11-09T02:11:43.482Z,57.30
2017-11-09T02:12:48.296Z,57.40
2017-11-09T02:13:52.958Z,57.40
2017-11-09T02:14:57.719Z,57.40
2017-11-09T02:16:02.613Z,57.30
2017-11-09T02:17:07.277Z,57.40
2017-11-09T02:18:11.998Z,57.30
2017-11-09T02:19:16.732Z,57.40
2017-11-09T02:20:21.477Z,57.40
2017-11-09T02:21:26.271Z,57.40
2017-11-09T02:22:31.071Z,57.40
2017-11-09T02:23:35.777Z,57.40
2017-11-09T02:24:40.655Z,57.40
2017-11-09T02:25:45.476Z,57.40
2017-11-09T02:26:50.048Z,57.40
2017-11-09T02:27:54.648Z,57.40
2017-11-09T02:28:59.523Z,57.50
2017-11-09T02:30:04.315Z,57.40
2017-11-09T02:31:09.194Z,57.40
2017-11-09T02:32:13.763Z,57.40
2017-11-09T02:33:18.339Z,57.40
2017-11-09T02:34:22.969Z,57.50
2017-11-09T02:35:27.565Z,57.50
2017-11-09T02:36:32.371Z,57.50
2017-11-09T02:37:37.087Z,57.50
2017-11-09T02:38:42.093Z,57.50
2017-11-09T02:39:46.792Z,57.60
2017-11-09T02:40:51.393Z,57.50
2017-11-09T02:41:56.239Z,57.60
2017-11-09T02:43:00.910Z,57.50
2017-11-09T02:44:05.466Z,57.60
2017-11-09T02:45:10.184Z,57.60
2017-11-09T02:46:14.930Z,57.50
2017-11-09T02:47:19.705Z,57.50
2017-11-09T02:48:24.655Z,57.50
2017-11-09T02:49:29.501Z,57.50
2017-11-09T02:50:34.269Z,57.50
2017-11-09T02:51:39.033Z,57.60
2017-11-09T02:52:43.848Z,57.50
2017-11-09T02:53:48.699Z,57.60
2017-11-09T02:54:53.672Z,57.60
2017-11-09T02:55:58.268Z,57.60
2017-11-09T02:57:03.091Z,57.60
2017-11-09T02:58:07.947Z,57.50
2017-11-09T02:59:12.750Z,57.60
2017-11-09T03:00:17.711Z,57.60
2017-11-09T03:01:22.350Z,57.60
2017-11-09T03:02:26.981Z,57.60
2017-11-09T03:03:32.039Z,57.60
2017-11-09T03:04:36.725Z,57.60
2017-11-09T03:05:41.735Z,57.60
2017-11-09T03:06:46.473Z,57.60
2017-11-09T03:07:51.461Z,57.60
2017-11-09T03:08:56.130Z,57.70
2017-11-09T03:10:00.965Z,57.60
2017-11-09T03:11:05.710Z,57.60
2017-11-09T03:12:10.701Z,57.70
2017-11-09T03:13:15.515Z,57.70
2017-11-09T03:14:20.841Z,57.60
2017-11-09T03:15:25.933Z,57.60
2017-11-09T03:16:30.815Z,57.60
2017-11-09T03:17:35.582Z,57.70
2017-11-09T03:18:40.355Z,57.60
2017-11-09T03:19:44.969Z,57.60
2017-11-09T03:20:49.863Z,57.60
2017-11-09T03:21:54.803Z,57.70
2017-11-09T03:22:59.723Z,57.60
2017-11-09T03:24:05.110Z,57.70
2017-11-09T03:25:09.740Z,57.70
2017-11-09T03:26:14.610Z,57.60
2017-11-09T03:27:19.429Z,57.70
2017-11-09T03:28:24.557Z,57.70
2017-11-09T03:29:29.288Z,57.70
2017-11-09T03:30:34.128Z,57.70
2017-11-09T03:31:38.920Z,57.70
2017-11-09T03:32:43.506Z,57.70
2017-11-09T03:33:48.429Z,57.70
2017-11-09T03:34:53.214Z,57.70
2017-11-09T03:35:58.195Z,57.70
2017-11-09T03:37:02.904Z,57.70
2017-11-09T03:38:07.865Z,57.70
2017-11-09T03:39:12.602Z,57.80
2017-11-09T03:40:17.393Z,57.70
2017-11-09T03:41:22.053Z,57.70
2017-11-09T03:42:26.926Z,57.70
2017-11-09T03:43:31.620Z,57.70
2017-11-09T03:44:36.246Z,57.70
2017-11-09T03:45:41.038Z,57.70
2017-11-09T03:46:45.666Z,57.70
2017-11-09T03:47:50.478Z,57.70
2017-11-09T03:48:55.308Z,57.70
2017-11-09T03:50:00.290Z,57.70
2017-11-09T03:51:04.979Z,57.70
2017-11-09T03:52:09.764Z,57.70
2017-11-09T03:53:14.473Z,57.70
2017-11-09T03:54:20.864Z,57.70
2017-11-09T03:55:25.820Z,57.70
2017-11-09T03:56:30.586Z,57.70
2017-11-09T03:57:36.560Z,57.70
2017-11-09T03:58:41.203Z,57.70
2017-11-09T03:59:46.028Z,57.70
2017-11-09T04:00:50.784Z,57.70
2017-11-09T04:01:55.470Z,57.80
2017-11-09T04:03:00.231Z,57.80
2017-11-09T04:04:05.019Z,57.80
2017-11-09T04:05:09.893Z,57.80
2017-11-09T04:06:14.852Z,57.70
2017-11-09T04:07:19.467Z,57.90
2017-11-09T04:08:24.468Z,57.70
2017-11-09T04:09:29.318Z,57.70
2017-11-09T04:10:34.190Z,57.70
2017-11-09T04:11:39.097Z,58.40
2017-11-09T04:12:44.081Z,57.70
2017-11-09T04:13:48.716Z,57.80
2017-11-09T04:14:53.718Z,57.80
2017-11-09T04:15:58.666Z,57.80
2017-11-09T04:17:03.468Z,57.80
2017-11-09T04:18:08.205Z,57.80
2017-11-09T04:19:13.017Z,57.80
2017-11-09T04:20:17.964Z,57.80
2017-11-09T04:21:22.650Z,57.80
2017-11-09T04:22:27.705Z,57.80
2017-11-09T04:23:32.493Z,57.90
2017-11-09T04:24:37.459Z,57.80
2017-11-09T04:25:42.768Z,57.80
2017-11-09T04:26:47.644Z,57.80
2017-11-09T04:27:52.564Z,57.90
2017-11-09T04:28:57.716Z,57.80
2017-11-09T04:30:02.804Z,57.90
2017-11-09T04:31:08.125Z,57.90
2017-11-09T04:32:13.122Z,58.00
2017-11-09T04:33:18.400Z,57.90
2017-11-09T04:34:23.736Z,57.90
2017-11-09T04:35:31.831Z,57.90
2017-11-09T04:36:37.261Z,57.80
2017-11-09T04:37:42.457Z,57.80
2017-11-09T04:38:49.154Z,57.80
2017-11-09T04:39:54.278Z,57.80
2017-11-09T04:40:59.622Z,57.80
2017-11-09T04:42:04.783Z,57.70
2017-11-09T04:43:09.945Z,57.70
2017-11-09T04:44:15.279Z,57.80
2017-11-09T04:45:20.560Z,57.80
2017-11-09T04:46:25.738Z,57.80
2017-11-09T04:47:30.715Z,57.70
2017-11-09T04:48:36.041Z,57.70
2017-11-09T04:49:41.411Z,57.70
2017-11-09T04:50:47.048Z,57.70
2017-11-09T04:51:53.660Z,57.70
2017-11-09T04:52:58.683Z,57.80
2017-11-09T04:54:04.092Z,57.80
2017-11-09T04:55:09.031Z,57.80
2017-11-09T04:56:14.203Z,57.80
2017-11-09T04:57:19.427Z,57.80
2017-11-09T04:58:24.596Z,57.80
2017-11-09T04:59:29.744Z,57.80
2017-11-09T05:00:35.018Z,57.80
2017-11-09T05:01:40.653Z,57.80
2017-11-09T05:02:45.545Z,57.80
2017-11-09T05:03:50.539Z,57.80
2017-11-09T05:04:55.581Z,57.80
2017-11-09T05:06:00.811Z,57.80
2017-11-09T05:07:06.317Z,57.80
2017-11-09T05:08:11.437Z,57.80
2017-11-09T05:09:17.221Z,57.80
2017-11-09T05:10:22.542Z,57.80
2017-11-09T05:11:27.886Z,57.80
2017-11-09T05:12:33.238Z,57.80
2017-11-09T05:13:38.642Z,57.80
2017-11-09T05:14:44.091Z,57.80
2017-11-09T05:15:49.135Z,57.80
2017-11-09T05:16:54.356Z,57.80
2017-11-09T05:17:59.348Z,57.80
2017-11-09T05:19:04.881Z,57.80
2017-11-09T05:20:10.018Z,57.80
2017-11-09T05:21:15.479Z,57.80
2017-11-09T05:22:20.676Z,57.80
2017-11-09T05:23:25.983Z,57.80
2017-11-09T05:24:33.369Z,57.80
2017-11-09T05:25:38.416Z,57.80
2017-11-09T05:26:43.339Z,57.80
2017-11-09T05:27:48.763Z,57.80
2017-11-09T05:28:54.183Z,57.80
2017-11-09T05:29:59.412Z,57.80
2017-11-09T05:31:04.969Z,57.70
2017-11-09T05:32:10.222Z,57.50
2017-11-09T05:33:16.383Z,57.30
2017-11-09T05:34:21.922Z,57.50
2017-11-09T05:35:27.149Z,57.90
2017-11-09T05:36:32.347Z,58.10
2017-11-09T05:37:37.854Z,58.20
2017-11-09T05:38:42.998Z,58.30
2017-11-09T05:39:48.066Z,58.30
2017-11-09T05:40:53.225Z,58.30
2017-11-09T05:41:58.275Z,58.20
2017-11-09T05:43:03.548Z,58.20
2017-11-09T05:44:08.718Z,58.10
2017-11-09T05:45:13.792Z,58.20
2017-11-09T05:46:20.271Z,58.20
2017-11-09T05:47:26.347Z,58.30
2017-11-09T05:48:31.651Z,58.20
2017-11-09T05:49:36.926Z,58.30
2017-11-09T05:50:42.229Z,58.40
2017-11-09T05:51:47.494Z,58.30
2017-11-09T05:52:52.632Z,58.40
2017-11-09T05:53:57.993Z,58.40
2017-11-09T05:55:02.970Z,58.40
2017-11-09T05:56:08.352Z,58.40
2017-11-09T05:57:14.052Z,58.40
2017-11-09T05:58:21.030Z,58.40
2017-11-09T05:59:26.291Z,58.40
2017-11-09T06:00:31.683Z,58.50
2017-11-09T06:01:37.010Z,58.40
2017-11-09T06:02:42.178Z,58.50
2017-11-09T06:03:47.308Z,58.50
2017-11-09T06:04:55.493Z,58.50
2017-11-09T06:06:00.996Z,58.50
2017-11-09T06:07:06.090Z,58.50
2017-11-09T06:08:11.231Z,58.40
2017-11-09T06:09:16.375Z,58.30
2017-11-09T06:10:21.582Z,56.60
2017-11-09T06:11:26.734Z,54.60
2017-11-09T06:12:31.828Z,53.00
2017-11-09T06:13:39.837Z,52.20
2017-11-09T06:14:44.975Z,50.40
2017-11-09T06:15:50.310Z,49.20
2017-11-09T06:16:55.883Z,49.00
2017-11-09T06:18:01.364Z,48.90
2017-11-09T06:19:06.644Z,48.70
2017-11-09T06:20:12.045Z,47.90
2017-11-09T06:21:17.215Z,47.70
2017-11-09T06:22:22.403Z,47.40
2017-11-09T06:23:27.622Z,46.90
2017-11-09T06:24:33.145Z,47.00
2017-11-09T06:25:38.275Z,47.30
2017-11-09T06:26:43.655Z,47.70
2017-11-09T06:27:49.013Z,48.10
2017-11-09T06:28:54.023Z,48.40
2017-11-09T06:30:00.138Z,48.70
2017-11-09T06:31:05.444Z,49.10
2017-11-09T06:32:10.951Z,49.30
2017-11-09T06:33:16.067Z,49.60
2017-11-09T06:34:21.124Z,49.80
2017-11-09T06:35:26.316Z,50.10
2017-11-09T06:36:31.307Z,49.60
2017-11-09T06:37:36.639Z,50.30
2017-11-09T06:38:41.599Z,50.40
2017-11-09T06:39:46.840Z,50.60
2017-11-09T06:40:51.872Z,50.80
2017-11-09T06:41:57.014Z,51.00
2017-11-09T06:43:02.314Z,51.10
2017-11-09T06:44:07.689Z,51.40
2017-11-09T06:45:12.805Z,51.60
2017-11-09T06:46:17.813Z,52.00
2017-11-09T06:47:24.968Z,52.00
2017-11-09T06:48:30.087Z,52.20
2017-11-09T06:49:35.390Z,52.30
2017-11-09T06:50:40.970Z,52.30
2017-11-09T06:51:46.330Z,52.30
2017-11-09T06:52:51.549Z,52.40
2017-11-09T06:53:57.026Z,52.60
2017-11-09T06:55:02.890Z,52.60
2017-11-09T06:56:08.063Z,52.70
2017-11-09T06:57:13.317Z,52.80
2017-11-09T06:58:18.826Z,53.10
2017-11-09T06:59:24.576Z,53.20
2017-11-09T07:00:30.220Z,53.20
2017-11-09T07:01:35.293Z,53.50
2017-11-09T07:02:43.164Z,53.50
2017-11-09T07:03:48.485Z,53.50
2017-11-09T07:04:53.919Z,53.50
2017-11-09T07:05:59.086Z,53.20
2017-11-09T07:07:04.624Z,53.20
2017-11-09T07:08:10.101Z,53.60
2017-11-09T07:09:15.564Z,54.20
2017-11-09T07:10:21.379Z,54.50
2017-11-09T07:11:27.166Z,54.70
2017-11-09T07:12:32.573Z,54.40
2017-11-09T07:13:38.239Z,54.20
2017-11-09T07:14:43.403Z,54.00
2017-11-09T07:15:48.274Z,54.20
2017-11-09T07:16:53.652Z,54.10
2017-11-09T07:17:58.517Z,53.90
2017-11-09T07:19:03.645Z,53.90
2017-11-09T07:20:08.705Z,54.00
2017-11-09T07:21:13.725Z,54.10
2017-11-09T07:22:18.736Z,54.30
2017-11-09T07:23:23.819Z,54.20
2017-11-09T07:24:28.812Z,54.10
2017-11-09T07:25:34.363Z,54.00
2017-11-09T07:26:40.159Z,53.90
2017-11-09T07:27:45.270Z,54.00
2017-11-09T07:28:50.366Z,54.10
2017-11-09T07:29:55.405Z,54.10
2017-11-09T07:31:00.649Z,54.10
2017-11-09T07:32:06.020Z,54.10
2017-11-09T07:33:11.219Z,54.20
2017-11-09T07:34:16.057Z,54.30
2017-11-09T07:35:21.149Z,54.50
2017-11-09T07:36:26.384Z,54.50
2017-11-09T07:37:31.499Z,54.40
2017-11-09T07:38:36.780Z,54.30
2017-11-09T07:39:41.712Z,54.40
2017-11-09T07:40:46.568Z,54.40
2017-11-09T07:41:51.651Z,54.40
2017-11-09T07:42:56.743Z,54.40
2017-11-09T07:44:01.727Z,54.50
2017-11-09T07:45:06.815Z,54.70
2017-11-09T07:46:11.946Z,54.70
2017-11-09T07:47:16.864Z,54.80
2017-11-09T07:48:21.978Z,54.80
2017-11-09T07:49:27.067Z,54.80
2017-11-09T07:50:32.257Z,54.80
2017-11-09T07:51:37.649Z,54.80
2017-11-09T07:52:42.900Z,54.70
2017-11-09T07:53:48.255Z,54.60
2017-11-09T07:54:53.532Z,54.60
2017-11-09T07:55:58.838Z,54.70
2017-11-09T07:57:04.339Z,54.70
2017-11-09T07:58:09.920Z,54.60
2017-11-09T07:59:15.358Z,54.70
2017-11-09T08:00:20.810Z,54.60
2017-11-09T08:01:26.332Z,54.70
2017-11-09T08:02:31.692Z,54.70
2017-11-09T08:03:36.936Z,54.60
2017-11-09T08:04:42.276Z,54.70
2017-11-09T08:05:47.587Z,54.80
2017-11-09T08:06:53.078Z,55.00
2017-11-09T08:07:58.688Z,55.10
2017-11-09T08:09:03.901Z,55.10
2017-11-09T08:10:12.116Z,55.00
2017-11-09T08:11:17.626Z,55.00
2017-11-09T08:12:22.867Z,55.00
2017-11-09T08:13:28.034Z,55.10
2017-11-09T08:14:33.435Z,55.00
2017-11-09T08:15:38.917Z,55.00
2017-11-09T08:16:44.383Z,55.10
2017-11-09T08:17:49.822Z,55.20
2017-11-09T08:18:55.326Z,55.10
2017-11-09T08:20:00.559Z,55.00
2017-11-09T08:21:06.617Z,55.10
2017-11-09T08:22:11.914Z,55.10
2017-11-09T08:23:17.371Z,55.00
2017-11-09T08:24:22.795Z,54.70
2017-11-09T08:25:28.005Z,54.60
2017-11-09T08:26:32.923Z,54.30
2017-11-09T08:27:37.690Z,54.30
2017-11-09T08:28:43.008Z,54.50
2017-11-09T08:29:49.201Z,54.80
2017-11-09T08:30:54.577Z,55.00
2017-11-09T08:31:59.725Z,55.30
2017-11-09T08:33:05.062Z,55.30
2017-11-09T08:34:10.581Z,55.30
2017-11-09T08:35:15.761Z,55.40
2017-11-09T08:36:21.253Z,55.30
2017-11-09T08:37:26.633Z,55.30
2017-11-09T08:38:31.778Z,55.30
2017-11-09T08:39:37.074Z,55.40
2017-11-09T08:40:42.363Z,55.40
2017-11-09T08:41:47.927Z,55.40
2017-11-09T08:42:53.296Z,55.40
2017-11-09T08:43:59.268Z,55.40
2017-11-09T08:45:04.440Z,55.40
2017-11-09T08:46:09.755Z,55.40
2017-11-09T08:47:14.878Z,55.30
2017-11-09T08:48:20.147Z,55.40
2017-11-09T08:49:25.474Z,55.50
2017-11-09T08:50:30.692Z,56.00
2017-11-09T08:51:35.583Z,56.20
2017-11-09T08:52:40.724Z,56.20
2017-11-09T08:53:45.879Z,56.60
2017-11-09T08:54:51.202Z,56.50
2017-11-09T08:55:56.321Z,56.50
2017-11-09T08:57:01.421Z,56.00
2017-11-09T08:58:06.457Z,55.50
2017-11-09T08:59:14.123Z,55.20
2017-11-09T09:00:19.379Z,55.80
2017-11-09T09:01:24.582Z,55.10
2017-11-09T09:02:29.959Z,55.20
2017-11-09T09:03:35.229Z,55.30
2017-11-09T09:04:40.227Z,55.30
2017-11-09T09:05:45.746Z,55.40
2017-11-09T09:06:51.125Z,55.50
2017-11-09T09:07:56.478Z,55.60
2017-11-09T09:09:01.561Z,55.60
2017-11-09T09:10:06.729Z,55.60
2017-11-09T09:11:12.252Z,55.70
2017-11-09T09:12:17.531Z,55.70
2017-11-09T09:13:22.970Z,55.80
2017-11-09T09:14:28.445Z,56.50
2017-11-09T09:15:33.847Z,55.90
2017-11-09T09:16:38.953Z,56.00
2017-11-09T09:17:44.403Z,56.10
2017-11-09T09:18:50.113Z,56.10
2017-11-09T09:19:55.582Z,56.20
2017-11-09T09:21:01.141Z,56.10
2017-11-09T09:22:06.636Z,56.10
2017-11-09T09:23:12.290Z,56.20
2017-11-09T09:24:17.450Z,56.40
2017-11-09T09:25:22.759Z,56.50
2017-11-09T09:26:28.570Z,56.50
2017-11-09T09:27:34.077Z,56.60
2017-11-09T09:28:39.727Z,56.60
2017-11-09T09:29:45.551Z,56.50
2017-11-09T09:30:51.121Z,56.60
2017-11-09T09:31:56.715Z,56.70
2017-11-09T09:33:02.532Z,56.60
2017-11-09T09:34:07.889Z,56.60
2017-11-09T09:35:13.364Z,56.60
2017-11-09T09:36:18.718Z,56.70
2017-11-09T09:37:23.842Z,56.60
2017-11-09T09:38:29.276Z,56.70
2017-11-09T09:39:34.923Z,56.70
2017-11-09T09:40:40.406Z,56.60
2017-11-09T09:41:45.789Z,56.60
2017-11-09T09:42:51.477Z,56.60
2017-11-09T09:43:56.811Z,56.60
2017-11-09T09:45:02.475Z,56.60
2017-11-09T09:46:08.141Z,56.70
2017-11-09T09:47:13.649Z,56.60
2017-11-09T09:48:21.031Z,56.70
2017-11-09T09:49:26.482Z,56.70
2017-11-09T09:50:31.786Z,56.70
2017-11-09T09:51:37.259Z,56.70
2017-11-09T09:52:42.617Z,56.70
2017-11-09T09:53:47.816Z,56.80
2017-11-09T09:54:53.092Z,56.70
2017-11-09T09:55:58.261Z,56.70
2017-11-09T09:57:03.677Z,56.70
2017-11-09T09:58:09.108Z,56.70
2017-11-09T09:59:14.648Z,56.70
2017-11-09T10:00:20.610Z,56.70
2017-11-09T10:01:25.841Z,56.70
2017-11-09T10:02:32.146Z,56.80
2017-11-09T10:03:40.982Z,56.80
2017-11-09T10:04:46.256Z,56.80
2017-11-09T10:05:51.699Z,56.80
2017-11-09T10:06:57.004Z,56.80
2017-11-09T10:08:03.421Z,56.70
2017-11-09T10:09:08.617Z,56.80
2017-11-09T10:10:14.347Z,56.80
2017-11-09T10:11:19.888Z,56.80
2017-11-09T10:12:25.223Z,56.80
2017-11-09T10:13:31.133Z,56.90
2017-11-09T10:14:37.691Z,56.90
2017-11-09T10:15:44.151Z,56.90
2017-11-09T10:16:50.288Z,56.90
2017-11-09T10:17:56.466Z,56.80
2017-11-09T10:19:02.805Z,56.80
2017-11-09T10:20:09.613Z,56.80
2017-11-09T10:21:15.850Z,56.80
2017-11-09T10:22:21.959Z,56.70
2017-11-09T10:23:28.039Z,56.90
2017-11-09T10:24:34.412Z,56.90
2017-11-09T10:25:40.744Z,56.70
2017-11-09T10:26:46.664Z,56.80
2017-11-09T10:27:52.852Z,56.80
2017-11-09T10:28:58.338Z,56.80
2017-11-09T10:30:06.276Z,56.60
2017-11-09T10:31:16.237Z,56.70
2017-11-09T10:32:22.063Z,56.90
2017-11-09T10:33:28.319Z,56.90
2017-11-09T10:34:34.445Z,56.60
2017-11-09T10:35:40.621Z,56.30
2017-11-09T10:36:46.980Z,56.20
2017-11-09T10:37:53.287Z,56.20
2017-11-09T10:38:58.722Z,56.10
2017-11-09T10:40:04.673Z,56.00
2017-11-09T10:41:11.306Z,55.80
2017-11-09T10:42:17.211Z,55.80
2017-11-09T10:43:23.354Z,56.00
2017-11-09T10:44:29.506Z,56.10
2017-11-09T10:45:35.611Z,56.00
2017-11-09T10:46:41.491Z,56.00
2017-11-09T10:47:47.855Z,56.00
2017-11-09T10:48:53.811Z,56.10
2017-11-09T10:49:59.640Z,56.40
2017-11-09T10:51:06.028Z,55.90
2017-11-09T10:52:11.409Z,55.90
2017-11-09T10:53:17.413Z,56.00
2017-11-09T10:54:23.419Z,56.10
2017-11-09T10:55:29.368Z,56.20
2017-11-09T10:56:35.048Z,56.30
2017-11-09T10:57:40.876Z,56.30
2017-11-09T10:58:48.366Z,57.10
2017-11-09T10:59:58.771Z,56.50
2017-11-09T11:01:05.866Z,56.50
2017-11-09T11:02:11.118Z,56.50
2017-11-09T11:03:16.861Z,56.40
2017-11-09T11:04:22.159Z,56.30
2017-11-09T11:05:27.491Z,56.20
2017-11-09T11:06:33.082Z,56.10
2017-11-09T11:07:39.588Z,56.10
2017-11-09T11:08:45.039Z,55.90
2017-11-09T11:09:49.889Z,55.90
2017-11-09T11:10:55.299Z,56.10
2017-11-09T11:12:01.108Z,56.30
2017-11-09T11:13:07.274Z,56.30
2017-11-09T11:14:13.173Z,56.50
2017-11-09T11:15:18.405Z,56.50
2017-11-09T11:16:23.861Z,56.60
2017-11-09T11:17:29.419Z,56.50
2017-11-09T11:18:34.873Z,56.20
2017-11-09T11:19:39.896Z,56.00
2017-11-09T11:20:45.262Z,56.10
2017-11-09T11:21:50.420Z,56.20
2017-11-09T11:22:56.249Z,56.40
2017-11-09T11:24:02.554Z,56.30
2017-11-09T11:25:08.298Z,56.30
2017-11-09T11:26:13.821Z,56.40
2017-11-09T11:27:19.296Z,56.40
2017-11-09T11:28:24.377Z,56.40
2017-11-09T11:29:31.347Z,56.40
2017-11-09T11:30:36.791Z,56.40
2017-11-09T11:31:42.202Z,56.50
2017-11-09T11:32:47.418Z,56.40
2017-11-09T11:33:52.685Z,56.40
2017-11-09T11:34:57.786Z,56.40
2017-11-09T11:36:03.195Z,56.50
2017-11-09T11:37:08.628Z,56.50
2017-11-09T11:38:13.982Z,56.40
2017-11-09T11:39:19.491Z,56.50
2017-11-09T11:40:24.645Z,56.40
2017-11-09T11:41:30.008Z,56.50
2017-11-09T11:42:36.183Z,56.40
2017-11-09T11:43:41.856Z,56.50
2017-11-09T11:44:47.075Z,56.70
2017-11-09T11:45:52.881Z,56.60
2017-11-09T11:46:58.080Z,56.60
2017-11-09T11:48:04.359Z,56.20
2017-11-09T11:49:09.751Z,55.90
2017-11-09T11:50:15.390Z,55.90
2017-11-09T11:51:21.043Z,55.80
2017-11-09T11:52:26.322Z,55.80
2017-11-09T11:53:31.671Z,55.70
2017-11-09T11:54:37.540Z,55.80
2017-11-09T11:55:42.961Z,55.80
2017-11-09T11:56:48.389Z,55.90
2017-11-09T11:57:53.489Z,55.90
2017-11-09T11:58:58.579Z,56.10
2017-11-09T12:00:04.233Z,55.90
2017-11-09T12:01:10.243Z,55.80
2017-11-09T12:02:15.752Z,55.80
2017-11-09T12:03:20.873Z,55.90
2017-11-09T12:04:26.338Z,56.00
2017-11-09T12:05:32.278Z,55.70
2017-11-09T12:06:38.152Z,55.60
2017-11-09T12:07:43.669Z,55.70
2017-11-09T12:08:49.103Z,55.70
2017-11-09T12:09:54.636Z,55.70
2017-11-09T12:11:00.186Z,55.70
2017-11-09T12:12:05.835Z,55.70
2017-11-09T12:13:11.481Z,55.90
2017-11-09T12:14:17.198Z,55.70
2017-11-09T12:15:22.724Z,55.80
2017-11-09T12:16:28.174Z,55.80
2017-11-09T12:17:33.356Z,55.60
2017-11-09T12:18:38.481Z,55.60
2017-11-09T12:19:43.962Z,55.50
2017-11-09T12:20:49.355Z,55.50
2017-11-09T12:21:54.604Z,55.50
2017-11-09T12:23:00.055Z,55.50
2017-11-09T12:24:05.714Z,55.60
2017-11-09T12:25:11.034Z,55.70
2017-11-09T12:26:16.478Z,55.80
2017-11-09T12:27:21.766Z,56.00
2017-11-09T12:28:27.053Z,56.00
2017-11-09T12:29:32.415Z,56.20
2017-11-09T12:30:37.796Z,56.10
2017-11-09T12:31:42.918Z,56.00
2017-11-09T12:32:48.133Z,55.90
2017-11-09T12:33:54.327Z,56.00
2017-11-09T12:34:59.454Z,56.20
2017-11-09T12:36:05.124Z,56.30
2017-11-09T12:37:10.499Z,56.20
2017-11-09T12:38:15.921Z,56.20
2017-11-09T12:39:21.485Z,56.40
2017-11-09T12:40:26.392Z,56.50
2017-11-09T12:41:32.224Z,56.40
2017-11-09T12:42:37.734Z,56.50
2017-11-09T12:43:43.279Z,56.50
2017-11-09T12:44:49.326Z,56.50
2017-11-09T12:45:55.709Z,56.70
2017-11-09T12:47:01.117Z,56.80
2017-11-09T12:48:06.812Z,56.90
2017-11-09T12:49:13.047Z,57.00
2017-11-09T12:50:19.363Z,56.90
2017-11-09T12:51:25.942Z,57.10
2017-11-09T12:52:31.996Z,57.10
2017-11-09T12:53:38.572Z,57.20
2017-11-09T12:54:45.127Z,57.10
2017-11-09T12:55:51.022Z,57.20
2017-11-09T12:56:56.370Z,57.20
2017-11-09T12:58:03.934Z,57.10
2017-11-09T12:59:10.123Z,57.10
2017-11-09T13:00:16.550Z,57.20
2017-11-09T13:01:22.933Z,57.10
2017-11-09T13:02:29.096Z,57.10
2017-11-09T13:03:34.545Z,57.20
2017-11-09T13:04:40.638Z,57.30
2017-11-09T13:05:46.864Z,55.50
2017-11-09T13:06:53.402Z,51.20
2017-11-09T13:07:59.469Z,50.80
2017-11-09T13:09:05.052Z,49.60
2017-11-09T13:10:11.504Z,49.40
2017-11-09T13:11:17.779Z,48.50
2017-11-09T13:12:24.070Z,47.40
2017-11-09T13:13:30.353Z,46.80
2017-11-09T13:14:36.684Z,47.10
2017-11-09T13:15:41.651Z,47.40
2017-11-09T13:16:48.248Z,47.30
2017-11-09T13:17:54.866Z,47.20
2017-11-09T13:19:01.354Z,47.70
2017-11-09T13:20:07.719Z,47.40
2017-11-09T13:21:14.001Z,47.20
2017-11-09T13:22:19.762Z,47.00
2017-11-09T13:23:25.247Z,46.40
2017-11-09T13:24:30.449Z,45.80
2017-11-09T13:25:35.616Z,46.60
2017-11-09T13:26:40.851Z,47.00
2017-11-09T13:27:47.098Z,47.50
2017-11-09T13:28:52.584Z,48.00
2017-11-09T13:29:58.590Z,48.70
2017-11-09T13:31:05.338Z,49.00
2017-11-09T13:32:14.325Z,49.40
2017-11-09T13:33:19.791Z,49.60
2017-11-09T13:34:26.291Z,50.00
2017-11-09T13:35:31.630Z,50.30
2017-11-09T13:36:37.180Z,50.10
2017-11-09T13:37:42.110Z,50.30
2017-11-09T13:38:47.324Z,50.70
2017-11-09T13:39:52.668Z,50.50
2017-11-09T13:40:57.657Z,50.90
2017-11-09T13:42:03.117Z,51.10
2017-11-09T13:43:08.330Z,51.10
2017-11-09T13:44:14.002Z,51.80
2017-11-09T13:45:19.148Z,51.30
2017-11-09T13:46:24.484Z,51.30
2017-11-09T13:47:31.133Z,51.20
2017-11-09T13:48:36.529Z,51.20
2017-11-09T13:49:42.193Z,51.10
2017-11-09T13:50:47.420Z,51.00
2017-11-09T13:51:52.240Z,51.10
2017-11-09T13:52:58.100Z,51.20
2017-11-09T13:54:03.835Z,51.20
2017-11-09T13:55:09.085Z,51.40
2017-11-09T13:56:14.044Z,51.40
2017-11-09T13:57:19.175Z,51.50
2017-11-09T13:58:24.717Z,51.70
2017-11-09T13:59:29.889Z,52.00
2017-11-09T14:00:35.391Z,52.10
2017-11-09T14:01:40.443Z,52.20